Wind From: 20-09-2018 14:00 Until: 20:00 warning for: Wind Level: Yellow info button
suomi:
Tuulivaroitus maa-alueille: Lounaistuuli on voimakasta, tuulen nopeus puuskissa 15 m/s.

svenska:
Vindvarning för landområden: är den sydvästliga vinden kraftigt, i vindbyarna 15 m/s.

english:
Wind warning for land areas: , strong winds from southwest may bring strong gusts of 15 m/s. 


Thunder radar more information blitzortung!


Löydät sääaseman tiedot myös:

European Weather Network

Finland Weather Exchange

Weather Underground

AWEKAS



Weather Underground säähistoriasivu

Päivittäin yhteenveto Maaliskuu 18, 2017 Yksiköt:  Englantilaiset    Metriset   Molemmat
« Edellinen Päivä
Seuraava Päivä »
Päivittäin Viikoittain Kuukausittain Vuosittain Mukautettu
  Korkea: Matala: Keskiarvo:
Lämpötila: TemperatureC °F -1.6 °F 1.4 °F
Kastepiste: DewpointC °F -5.6 °F -1.8 °F
Kosteus: Humidity % 53 % 80 %
Tuulen nopeus: WindSpeedKMH mph 0.0 mph 3.2 mph
Tuulenpuuska: WindSpeedGustKMH mph - -
Tuuli:- - WSW
Ilmanpaine: PressurehPa in 980.6 in -
Sade: 0.0 in    
Historical Graphs
 
 
Taulukkotiedot Maaliskuu 18, 2017
Aika Lämpötila Kastepiste Ilmanpaine Tuuli Tuulen nopeus Tuulenpuuska Kosteus Sademäärä (tunneittain)
TemperatureC °F DewpointC °F PressurehPa in Calm     Humidity % HourlyPrecipMM in
00:00 0.4 °F -1.2 °F 980.9 in Calm   3.2 mph 89 % 0.0 in
00:15 0.4 °F -1.1 °F 980.6 in Calm   4.8 mph 90 % 0.0 in
00:30 0.2 °F -1.3 °F 980.6 in Calm     90 % 0.0 in
00:45 -0.1 °F -1.3 °F 980.9 in Calm     91 % 0.0 in
01:00 -0.2 °F -1.5 °F 980.9 in Calm   9.7 mph 91 % 0.0 in
01:15 -0.1 °F -1.3 °F 980.9 in Calm   6.4 mph 92 % 0.0 in
01:30 0.2 °F -1.0 °F 980.9 in SSW 1.6 mph 8.0 mph 92 % 0.0 in
01:45 0.5 °F -0.8 °F 980.9 in South 3.2 mph 8.0 mph 91 % 0.0 in
02:00 0.6 °F -0.7 °F 980.9 in South 1.6 mph 8.0 mph 91 % 0.0 in
02:15 0.7 °F -0.6 °F 980.6 in South 1.6 mph 8.0 mph 91 % 0.0 in
02:30 1.3 °F -0.2 °F 980.6 in SSW 4.8 mph 14.5 mph 90 % 0.0 in
02:45 1.6 °F -0.1 °F 980.9 in SSW 6.4 mph 14.5 mph 89 % 0.0 in
03:00 1.6 °F -0.1 °F 980.9 in SSW 6.4 mph 14.5 mph 89 % 0.0 in
03:15 1.5 °F -0.1 °F 980.9 in SSW 4.8 mph 11.3 mph 89 % 0.0 in
03:30 1.4 °F -0.1 °F 980.6 in SSW 4.8 mph 12.9 mph 90 % 0.0 in
03:45 1.3 °F -0.2 °F 980.6 in SSW 4.8 mph 14.5 mph 90 % 0.0 in
04:00 1.2 °F -0.1 °F 980.6 in South 4.8 mph 11.3 mph 91 % 0.0 in
04:15 1.1 °F -0.2 °F 980.6 in SSW 4.8 mph 12.9 mph 91 % 0.0 in
04:30 1.1 °F -0.2 °F 980.9 in SSW 8.0 mph 16.1 mph 91 % 0.0 in
05:00 1.0 °F -0.2 °F 980.9 in SSW 6.4 mph 11.3 mph 92 % 0.0 in
05:15 1.1 °F 0.0 °F 980.9 in SSW 8.0 mph 16.1 mph 92 % 0.0 in
05:30 1.1 °F 0.1 °F 981.3 in SSW 8.0 mph 16.1 mph 93 % 0.0 in
05:45 1.0 °F 0.1 °F 981.3 in SSW 8.0 mph 16.1 mph 94 % 0.0 in
06:00 0.9 °F 0.0 °F 981.3 in SSW 4.8 mph 11.3 mph 94 % 0.0 in
06:15 0.9 °F 0.2 °F 981.3 in SSW 6.4 mph 12.9 mph 95 % 0.0 in
06:30 0.8 °F 0.1 °F 981.6 in SSW 4.8 mph 9.7 mph 95 % 0.0 in
06:45 0.8 °F 0.1 °F 981.6 in SW 4.8 mph 9.7 mph 95 % 0.0 in
07:00 0.8 °F 0.1 °F 981.6 in SSW 4.8 mph 11.3 mph 95 % 0.0 in
07:15 0.8 °F 0.1 °F 981.9 in SSW 3.2 mph 9.7 mph 95 % 0.0 in
07:30 0.8 °F 0.1 °F 982.3 in SSW 3.2 mph 11.3 mph 95 % 0.0 in
07:45 0.8 °F 0.1 °F 982.3 in SSW 4.8 mph 9.7 mph 95 % 0.0 in
08:00 0.8 °F 0.1 °F 982.3 in SSW 6.4 mph 17.7 mph 95 % 0.0 in
08:15 1.0 °F 0.3 °F 982.6 in SSW 4.8 mph 14.5 mph 95 % 0.0 in
08:30 1.1 °F 0.2 °F 983.0 in SSW 4.8 mph 11.3 mph 94 % 0.0 in
08:45 0.9 °F 0.1 °F 983.3 in SSW 3.2 mph 11.3 mph 94 % 0.0 in
09:00 1.0 °F 0.1 °F 983.3 in SW 3.2 mph 11.3 mph 94 % 0.0 in
09:15 1.1 °F 0.3 °F 983.6 in SSW 3.2 mph 8.0 mph 94 % 0.0 in
09:30 1.2 °F 0.3 °F 983.6 in SSW 3.2 mph 8.0 mph 94 % 0.0 in
09:45 1.2 °F 0.4 °F 984.0 in WSW 1.6 mph 6.4 mph 94 % 0.0 in
10:00 1.5 °F 0.5 °F 984.0 in WSW 1.6 mph 8.0 mph 93 % 0.0 in
10:15 1.7 °F 0.4 °F 984.3 in WSW 4.8 mph 12.9 mph 91 % 0.0 in
10:30 1.8 °F 0.5 °F 984.6 in WSW 1.6 mph 12.9 mph 91 % 0.0 in
10:45 2.3 °F 0.7 °F 984.6 in West 3.2 mph 12.9 mph 89 % 0.0 in
11:00 2.2 °F 0.8 °F 984.6 in West 3.2 mph 9.7 mph 90 % 0.0 in
11:15 2.3 °F 0.9 °F 985.0 in WSW 1.6 mph 9.7 mph 90 % 0.0 in
11:30 2.4 °F 0.7 °F 985.3 in WSW 1.6 mph 9.7 mph 88 % 0.0 in
11:45 2.6 °F 0.5 °F 985.7 in Calm   8.0 mph 86 % 0.0 in
12:00 2.7 °F 0.6 °F 985.7 in WNW 3.2 mph 11.3 mph 86 % 0.0 in
12:15 2.4 °F 1.0 °F 986.0 in SSW 3.2 mph 8.0 mph 90 % 0.0 in
12:30 2.6 °F 1.2 °F 986.0 in SW 3.2 mph 9.7 mph 91 % 0.0 in
12:45 3.4 °F 1.2 °F 986.3 in SSW 4.8 mph 9.7 mph 85 % 0.0 in
13:00 3.5 °F 0.9 °F 986.3 in WSW 3.2 mph 9.7 mph 83 % 0.0 in
13:15 3.3 °F -0.3 °F 986.7 in WNW 3.2 mph 9.7 mph 77 % 0.0 in
13:30 4.1 °F -0.5 °F 986.7 in West 4.8 mph 12.9 mph 72 % 0.0 in
13:45 4.6 °F -1.3 °F 987.0 in West 4.8 mph 16.1 mph 66 % 0.0 in
14:00 4.8 °F -1.2 °F 987.4 in West 4.8 mph 14.5 mph 65 % 0.0 in
14:15 4.8 °F -1.2 °F 987.4 in WNW 4.8 mph 11.3 mph 65 % 0.0 in
14:30 4.9 °F -2.5 °F 987.7 in WNW 6.4 mph 14.5 mph 59 % 0.0 in
14:45 5.0 °F -2.6 °F 987.7 in NW 4.8 mph 16.1 mph 58 % 0.0 in
15:00 4.9 °F -3.4 °F 988.0 in NW 6.4 mph 17.7 mph 55 % 0.0 in
15:15 4.8 °F -3.5 °F 988.0 in NW 8.0 mph 16.1 mph 55 % 0.0 in
15:30 4.6 °F -4.2 °F 988.4 in NW 8.0 mph 20.9 mph 53 % 0.0 in
15:45 4.3 °F -4.2 °F 988.7 in NW 8.0 mph 17.7 mph 54 % 0.0 in
16:00 4.3 °F -3.5 °F 988.7 in NW 4.8 mph 14.5 mph 57 % 0.0 in
16:15 4.3 °F -4.2 °F 989.1 in WNW 6.4 mph 12.9 mph 54 % 0.0 in
16:30 4.0 °F -4.0 °F 989.4 in NW 3.2 mph 9.7 mph 56 % 0.0 in
16:45 3.9 °F -4.1 °F 989.4 in NW 6.4 mph 14.5 mph 56 % 0.0 in
17:00 3.7 °F -4.7 °F 989.7 in WNW 4.8 mph 12.9 mph 54 % 0.0 in
17:15 3.6 °F -4.9 °F 989.7 in NW 3.2 mph 9.7 mph 54 % 0.0 in
17:30 3.3 °F -5.4 °F 990.1 in NNW 3.2 mph 6.4 mph 53 % 0.0 in
17:45 3.2 °F -5.5 °F 990.1 in WNW 3.2 mph 8.0 mph 53 % 0.0 in
18:00 3.0 °F -5.2 °F 990.4 in Calm   3.2 mph 55 % 0.0 in
18:15 2.6 °F -5.6 °F 990.4 in Calm   1.6 mph 55 % 0.0 in
18:30 1.9 °F -5.1 °F 990.7 in Calm     60 % 0.0 in
18:45 1.0 °F -4.8 °F 991.1 in Calm     65 % 0.0 in
19:00 0.1 °F -4.8 °F 991.1 in Calm     70 % 0.0 in
19:15 -0.7 °F -4.3 °F 991.4 in Calm     77 % 0.0 in
19:30 -1.2 °F -4.6 °F 991.4 in Calm     78 % 0.0 in
19:45 -1.5 °F -4.7 °F 991.8 in Calm   3.2 mph 79 % 0.0 in
20:00 -1.4 °F -4.7 °F 991.8 in Calm   3.2 mph 78 % 0.0 in
20:15 -1.3 °F -4.6 °F 992.1 in Calm     78 % 0.0 in
20:30 -1.4 °F -4.6 °F 992.4 in Calm   3.2 mph 79 % 0.0 in
20:45 -1.3 °F -4.5 °F 992.4 in Calm   4.8 mph 79 % 0.0 in
21:00 -1.1 °F -4.3 °F 992.8 in Calm   4.8 mph 79 % 0.0 in
21:15 -1.0 °F -4.4 °F 992.8 in West 3.2 mph 12.9 mph 78 % 0.0 in
21:30 -0.8 °F -4.5 °F 993.1 in WNW 3.2 mph 9.7 mph 76 % 0.0 in
21:45 -0.8 °F -4.7 °F 993.1 in WNW 1.6 mph 8.0 mph 75 % 0.0 in
22:00 -0.8 °F -4.5 °F 993.5 in WNW 3.2 mph 9.7 mph 76 % 0.0 in
22:15 -0.9 °F -4.8 °F 993.5 in NW 1.6 mph 6.4 mph 75 % 0.0 in
22:30 -1.1 °F -4.6 °F 993.8 in WNW 1.6 mph 4.8 mph 77 % 0.0 in
22:45 -1.3 °F -4.8 °F 993.8 in Calm   9.7 mph 77 % 0.0 in
23:00 -1.4 °F -4.7 °F 993.8 in WNW 1.6 mph 9.7 mph 78 % 0.0 in
23:15 -1.4 °F -4.7 °F 994.1 in WNW 1.6 mph 4.8 mph 78 % 0.0 in
23:30 -1.4 °F -4.8 °F 994.5 in WNW 1.6 mph 4.8 mph 78 % 0.0 in
23:45 -1.6 °F -4.7 °F 994.5 in NW 1.6 mph 6.4 mph 79 % 0.0 in
Esan sääasema
Terveisin Weather Underground - 2.75 mb

Alkuperäinen skripti  Jim McMurry - jmcmurry@mwt.net Sovitettu myös templatelle  Wim van der Kuil - Leuven-Template.eu

Laitteet joita käytämme:

Sääasema
Davis VP2

Sääasemaohjelma
Cumulus

Sääaseman tietokone
Asus EeePC

Palveluntarjoaja
Suncomet

Davis VP2

Cumulus

Asus EeePC

Suncomet